createdAt,value
2023-05-15T00:00:52.958Z,2.17
2023-05-15T00:03:22.502Z,2.63
2023-05-15T00:05:50.805Z,2.40
2023-05-15T00:08:18.822Z,2.33
2023-05-15T00:10:57.409Z,2.30
2023-05-15T00:13:28.168Z,2.90
2023-05-15T00:15:56.215Z,2.25
2023-05-15T00:18:25.651Z,2.67
2023-05-15T00:20:53.826Z,2.38
2023-05-15T00:23:21.901Z,2.42
2023-05-15T00:25:49.998Z,2.38
2023-05-15T00:28:18.129Z,2.50
2023-05-15T00:30:46.180Z,3.30
2023-05-15T00:33:14.632Z,3.35
2023-05-15T00:35:44.104Z,2.70
2023-05-15T00:38:13.428Z,3.42
2023-05-15T00:40:43.176Z,2.65
2023-05-15T00:43:12.163Z,3.85
2023-05-15T00:45:41.720Z,4.15
2023-05-15T00:48:11.075Z,3.90
2023-05-15T00:50:41.409Z,3.47
2023-05-15T00:53:12.056Z,4.05
2023-05-15T00:55:41.661Z,4.25
2023-05-15T00:58:11.337Z,4.05
2023-05-15T01:00:40.096Z,3.97
2023-05-15T01:03:08.318Z,3.72
2023-05-15T01:05:36.533Z,3.95
2023-05-15T01:08:14.125Z,3.35
2023-05-15T01:10:45.231Z,3.97
2023-05-15T01:13:15.328Z,4.17
2023-05-15T01:15:44.574Z,3.65
2023-05-15T01:18:12.826Z,3.65
2023-05-15T01:20:51.899Z,3.28
2023-05-15T01:23:25.237Z,3.33
2023-05-15T01:26:33.676Z,3.33
2023-05-15T01:29:09.592Z,2.95
2023-05-15T01:31:40.784Z,3.20
2023-05-15T01:34:10.552Z,2.83
2023-05-15T01:36:44.090Z,2.75
2023-05-15T01:39:13.681Z,2.65
2023-05-15T01:41:52.316Z,2.78
2023-05-15T01:44:29.779Z,2.80
2023-05-15T01:47:02.744Z,2.63
2023-05-15T01:49:33.655Z,3.08
2023-05-15T01:52:07.674Z,3.17
2023-05-15T01:54:37.020Z,3.83
2023-05-15T01:57:07.072Z,3.03
2023-05-15T01:59:37.815Z,3.30
2023-05-15T02:02:07.096Z,2.80
2023-05-15T02:04:35.803Z,2.88
2023-05-15T02:07:05.231Z,3.05
2023-05-15T02:09:34.214Z,2.70
2023-05-15T02:12:03.494Z,2.42
2023-05-15T02:14:32.485Z,2.45
2023-05-15T02:17:01.985Z,2.83
2023-05-15T02:19:30.338Z,2.95
2023-05-15T02:21:58.420Z,2.70
2023-05-15T02:24:26.505Z,2.25
2023-05-15T02:27:01.928Z,2.92
2023-05-15T02:29:37.466Z,2.65
2023-05-15T02:32:15.577Z,2.60
2023-05-15T02:34:47.226Z,2.40
2023-05-15T02:37:18.188Z,2.00
2023-05-15T02:39:49.695Z,2.05
2023-05-15T02:42:18.674Z,2.33
2023-05-15T02:44:48.326Z,1.98
2023-05-15T02:47:18.626Z,2.05
2023-05-15T02:49:46.888Z,2.10
2023-05-15T02:52:15.900Z,2.17
2023-05-15T02:54:44.232Z,2.33
2023-05-15T02:57:12.299Z,2.30
2023-05-15T02:59:40.544Z,1.90
2023-05-15T03:02:08.629Z,1.90
2023-05-15T03:04:38.341Z,1.73
2023-05-15T03:07:06.423Z,1.98
2023-05-15T03:09:34.508Z,1.80
2023-05-15T03:12:02.557Z,1.70
2023-05-15T03:14:30.661Z,2.22
2023-05-15T03:16:58.747Z,2.15
2023-05-15T03:19:26.927Z,1.90
2023-05-15T03:21:56.368Z,1.88
2023-05-15T03:24:24.453Z,2.10
2023-05-15T03:26:52.533Z,1.90
2023-05-15T03:29:20.807Z,1.83
2023-05-15T03:31:48.968Z,1.80
2023-05-15T03:34:17.158Z,1.73
2023-05-15T03:36:45.235Z,2.20
2023-05-15T03:39:14.680Z,1.70
2023-05-15T03:41:42.743Z,1.33
2023-05-15T03:44:10.757Z,1.38
2023-05-15T03:46:38.891Z,1.70
2023-05-15T03:49:07.012Z,1.58
2023-05-15T03:51:35.208Z,1.30
2023-05-15T03:54:05.159Z,1.52
2023-05-15T03:56:34.720Z,1.70
2023-05-15T03:59:02.789Z,2.03
2023-05-15T04:01:30.870Z,2.10
2023-05-15T04:03:58.920Z,2.10
2023-05-15T04:06:26.988Z,1.90
2023-05-15T04:08:55.023Z,2.60
2023-05-15T04:11:23.872Z,3.03
2023-05-15T04:13:53.295Z,2.38
2023-05-15T04:16:21.408Z,2.78
2023-05-15T04:18:49.491Z,10.75
2023-05-15T04:21:17.639Z,6.68
2023-05-15T04:23:45.727Z,3.10
2023-05-15T04:26:13.843Z,2.42
2023-05-15T04:28:52.342Z,3.33
2023-05-15T04:31:26.059Z,2.53
2023-05-15T04:33:54.140Z,2.97
2023-05-15T04:36:22.505Z,3.10
2023-05-15T04:38:50.558Z,2.83
2023-05-15T04:41:18.892Z,2.47
2023-05-15T04:43:47.038Z,2.33
2023-05-15T04:46:15.186Z,2.80
2023-05-15T04:48:44.648Z,2.75
2023-05-15T04:51:12.822Z,2.53
2023-05-15T04:53:41.182Z,3.00
2023-05-15T04:56:09.345Z,2.97
2023-05-15T04:58:37.413Z,3.00
2023-05-15T05:01:05.778Z,3.03
2023-05-15T05:03:33.869Z,2.63
2023-05-15T05:06:03.454Z,2.50
2023-05-15T05:08:31.655Z,2.55
2023-05-15T05:10:59.742Z,2.38
2023-05-15T05:13:27.821Z,2.60
2023-05-15T05:15:55.916Z,2.28
2023-05-15T05:18:24.264Z,2.42
2023-05-15T05:21:00.404Z,2.42
2023-05-15T05:23:30.118Z,2.40
2023-05-15T05:25:58.420Z,2.40
2023-05-15T05:28:26.525Z,2.42
2023-05-15T05:30:54.600Z,2.45
2023-05-15T05:33:22.688Z,2.55
2023-05-15T05:35:51.636Z,2.42
2023-05-15T05:38:19.746Z,2.20
2023-05-15T05:40:49.161Z,2.38
2023-05-15T05:43:17.248Z,2.28
2023-05-15T05:45:45.284Z,2.50
2023-05-15T05:48:13.469Z,3.08
2023-05-15T05:50:42.337Z,3.17
2023-05-15T05:53:10.647Z,2.83
2023-05-15T05:55:38.827Z,2.55
2023-05-15T05:58:21.676Z,2.70
2023-05-15T06:00:53.448Z,2.90
2023-05-15T06:03:22.437Z,3.40
2023-05-15T06:05:50.959Z,3.50
2023-05-15T06:08:19.613Z,3.63
2023-05-15T06:10:48.272Z,3.42
2023-05-15T06:13:17.991Z,3.70
2023-05-15T06:15:46.499Z,3.42
2023-05-15T06:18:14.615Z,3.45
2023-05-15T06:20:43.435Z,2.92
2023-05-15T06:23:11.568Z,3.03
2023-05-15T06:25:39.741Z,3.55
2023-05-15T06:28:07.940Z,3.40
2023-05-15T06:30:37.396Z,2.88
2023-05-15T06:33:05.614Z,3.00
2023-05-15T06:35:33.705Z,3.33
2023-05-15T06:38:02.014Z,3.33
2023-05-15T06:40:30.240Z,3.30
2023-05-15T06:42:58.800Z,2.90
2023-05-15T06:45:27.325Z,3.72
2023-05-15T06:47:59.884Z,3.15
2023-05-15T06:50:29.664Z,3.42
2023-05-15T06:52:57.751Z,3.17
2023-05-15T06:55:26.245Z,3.00
2023-05-15T06:57:54.513Z,3.13
2023-05-15T07:00:23.090Z,3.13
2023-05-15T07:02:51.197Z,3.30
2023-05-15T07:05:21.851Z,3.45
2023-05-15T07:07:49.977Z,3.28
2023-05-15T07:10:18.193Z,3.35
2023-05-15T07:12:46.250Z,3.38
2023-05-15T07:15:14.299Z,3.45
2023-05-15T07:17:42.433Z,3.40
2023-05-15T07:20:11.307Z,3.40
2023-05-15T07:22:51.866Z,3.28
2023-05-15T07:25:23.734Z,4.22
2023-05-15T07:27:52.195Z,3.40
2023-05-15T07:30:20.469Z,3.33
2023-05-15T07:32:48.579Z,3.10
2023-05-15T07:35:18.445Z,3.53
2023-05-15T07:37:47.942Z,3.30
2023-05-15T07:40:16.552Z,3.28
2023-05-15T07:42:45.375Z,3.30
2023-05-15T07:45:13.620Z,2.95
2023-05-15T07:47:46.200Z,2.90
2023-05-15T07:50:14.605Z,2.72
2023-05-15T07:52:43.191Z,3.78
2023-05-15T07:55:13.935Z,2.80
2023-05-15T07:57:42.332Z,2.90
2023-05-15T08:00:11.669Z,3.25
2023-05-15T08:02:40.012Z,3.13
2023-05-15T08:05:08.782Z,2.65
2023-05-15T08:07:37.063Z,3.20
2023-05-15T08:10:06.313Z,4.28
2023-05-15T08:12:35.912Z,3.80
2023-05-15T08:15:04.077Z,2.95
2023-05-15T08:17:32.181Z,3.05
2023-05-15T08:20:00.302Z,2.85
2023-05-15T08:22:30.321Z,2.80
2023-05-15T08:24:58.499Z,3.97
2023-05-15T08:27:26.804Z,3.20
2023-05-15T08:29:56.509Z,2.92
2023-05-15T08:32:24.674Z,2.55
2023-05-15T08:34:52.773Z,2.88
2023-05-15T08:37:20.841Z,2.70
2023-05-15T08:39:48.925Z,3.00
2023-05-15T08:42:22.415Z,2.70
2023-05-15T08:44:51.061Z,2.80
2023-05-15T08:47:21.107Z,2.47
2023-05-15T08:49:57.223Z,2.72
2023-05-15T08:52:26.501Z,2.22
2023-05-15T08:54:55.234Z,2.33
2023-05-15T08:57:23.673Z,2.90
2023-05-15T08:59:53.872Z,2.40
2023-05-15T09:02:25.358Z,2.00
2023-05-15T09:04:53.662Z,2.65
2023-05-15T09:07:22.041Z,2.47
2023-05-15T09:09:50.986Z,2.45
2023-05-15T09:12:20.386Z,2.33
2023-05-15T09:14:48.626Z,2.38
2023-05-15T09:17:16.822Z,2.03
2023-05-15T09:19:46.294Z,2.10
2023-05-15T09:22:18.264Z,2.25
2023-05-15T09:24:48.264Z,2.15
2023-05-15T09:27:16.479Z,2.17
2023-05-15T09:29:45.230Z,1.95
2023-05-15T09:32:15.067Z,2.40
2023-05-15T09:34:45.883Z,2.20
2023-05-15T09:37:28.990Z,2.00
2023-05-15T09:39:57.104Z,2.72
2023-05-15T09:42:25.925Z,2.63
2023-05-15T09:44:53.974Z,2.58
2023-05-15T09:47:22.122Z,2.53
2023-05-15T09:49:52.070Z,2.47
2023-05-15T09:52:20.268Z,2.72
2023-05-15T09:54:50.243Z,2.65
2023-05-15T09:57:24.071Z,2.72
2023-05-15T09:59:52.203Z,2.70
2023-05-15T10:02:32.012Z,3.50
2023-05-15T10:05:02.158Z,3.42
2023-05-15T10:07:30.791Z,4.10
2023-05-15T10:09:59.382Z,4.03
2023-05-15T10:12:29.339Z,3.70
2023-05-15T10:14:58.478Z,3.63
2023-05-15T10:17:28.458Z,3.80
2023-05-15T10:19:59.986Z,3.00
2023-05-15T10:22:31.640Z,2.53
2023-05-15T10:27:31.083Z,1.60
2023-05-15T10:30:01.142Z,1.77
2023-05-15T10:32:29.533Z,1.30
2023-05-15T10:34:58.713Z,1.60
2023-05-15T10:37:27.218Z,1.58
2023-05-15T10:39:58.555Z,1.30
2023-05-15T10:42:27.681Z,1.23
2023-05-15T10:45:00.108Z,1.20
2023-05-15T10:47:28.652Z,1.20
2023-05-15T10:49:56.707Z,1.30
2023-05-15T10:52:25.485Z,1.73
2023-05-15T10:54:54.464Z,1.63
2023-05-15T10:57:24.091Z,1.60
2023-05-15T10:59:52.189Z,1.48
2023-05-15T11:02:21.552Z,1.38
2023-05-15T11:04:49.760Z,1.35
2023-05-15T11:07:19.025Z,1.25
2023-05-15T11:09:47.135Z,1.55
2023-05-15T11:12:15.202Z,1.50
2023-05-15T11:15:05.834Z,1.55
2023-05-15T11:17:34.301Z,1.40
2023-05-15T11:20:02.571Z,1.80
2023-05-15T11:22:32.777Z,1.50
2023-05-15T11:25:03.050Z,1.50
2023-05-15T11:27:33.133Z,1.35
2023-05-15T11:30:11.978Z,1.67
2023-05-15T11:32:56.238Z,1.48
2023-05-15T11:35:27.718Z,1.45
2023-05-15T11:37:57.199Z,1.50
2023-05-15T11:40:27.628Z,1.42
2023-05-15T11:43:04.453Z,1.77
2023-05-15T11:45:36.145Z,1.70
2023-05-15T11:48:06.549Z,1.55
2023-05-15T11:50:36.317Z,1.60
2023-05-15T11:53:06.368Z,1.50
2023-05-15T11:55:35.898Z,1.67
2023-05-15T11:58:05.188Z,1.67
2023-05-15T12:00:35.047Z,1.70
2023-05-15T12:03:03.842Z,2.00
2023-05-15T12:05:32.171Z,2.13
2023-05-15T12:08:00.242Z,1.80
2023-05-15T12:10:28.514Z,2.05
2023-05-15T12:12:56.583Z,1.92
2023-05-15T12:15:24.835Z,1.83
2023-05-15T12:17:54.367Z,1.90
2023-05-15T12:20:22.783Z,1.75
2023-05-15T12:22:50.922Z,1.65
2023-05-15T12:25:19.010Z,2.10
2023-05-15T12:27:47.150Z,2.42
2023-05-15T12:30:15.686Z,2.38
2023-05-15T12:32:44.683Z,2.78
2023-05-15T12:35:14.452Z,2.70
2023-05-15T12:37:43.221Z,3.13
2023-05-15T12:40:12.358Z,2.22
2023-05-15T12:42:44.092Z,2.42
2023-05-15T12:47:44.808Z,1.83
2023-05-15T12:50:16.570Z,2.78
2023-05-15T12:55:19.639Z,1.85
2023-05-15T12:57:47.746Z,1.75
2023-05-15T13:00:16.857Z,2.45
2023-05-15T13:02:45.724Z,1.88
2023-05-15T13:05:15.781Z,1.60
2023-05-15T13:07:45.286Z,1.52
2023-05-15T13:10:14.278Z,1.92
2023-05-15T13:12:45.227Z,2.35
2023-05-15T13:15:26.220Z,2.30
2023-05-15T13:17:57.417Z,2.60
2023-05-15T13:20:27.278Z,2.60
2023-05-15T13:22:55.906Z,2.53
2023-05-15T13:25:23.969Z,3.28
2023-05-15T13:27:52.632Z,2.78
2023-05-15T13:30:20.910Z,3.20
2023-05-15T13:32:49.000Z,3.53
2023-05-15T13:35:17.524Z,3.10
2023-05-15T13:37:47.041Z,2.67
2023-05-15T13:40:15.468Z,2.85
2023-05-15T13:42:44.277Z,3.17
2023-05-15T13:45:14.616Z,2.92
2023-05-15T13:47:43.459Z,3.00
2023-05-15T13:50:12.968Z,2.78
2023-05-15T13:52:42.249Z,3.35
2023-05-15T13:55:12.474Z,2.95
2023-05-15T13:57:41.976Z,3.05
2023-05-15T14:00:12.895Z,2.75
2023-05-15T14:02:41.591Z,3.00
2023-05-15T14:05:11.095Z,3.00
2023-05-15T14:07:39.393Z,3.05
2023-05-15T14:10:08.805Z,2.25
2023-05-15T14:12:38.479Z,2.90
2023-05-15T14:15:07.547Z,2.63
2023-05-15T14:17:35.849Z,2.60
2023-05-15T14:20:05.029Z,3.10
2023-05-15T14:22:33.256Z,5.15
2023-05-15T14:25:01.295Z,4.13
2023-05-15T14:27:29.393Z,3.47
2023-05-15T14:29:58.851Z,3.30
2023-05-15T14:32:26.886Z,2.92
2023-05-15T14:34:56.943Z,3.28
2023-05-15T14:37:24.956Z,3.33
2023-05-15T14:39:52.980Z,3.78
2023-05-15T14:42:22.212Z,3.95
2023-05-15T14:44:50.479Z,5.85
2023-05-15T14:47:19.863Z,4.80
2023-05-15T14:49:47.918Z,4.47
2023-05-15T14:52:15.977Z,5.20
2023-05-15T14:54:45.971Z,4.68
2023-05-15T14:57:20.317Z,4.30
2023-05-15T14:59:48.472Z,4.30
2023-05-15T15:02:16.504Z,5.18
2023-05-15T15:04:45.900Z,4.22
2023-05-15T15:07:13.941Z,4.70
2023-05-15T15:09:41.961Z,4.80
2023-05-15T15:12:10.129Z,4.95
2023-05-15T15:14:38.170Z,4.47
2023-05-15T15:17:06.441Z,7.85
2023-05-15T15:19:34.907Z,6.53
2023-05-15T15:22:04.310Z,6.18
2023-05-15T15:24:32.371Z,5.50
2023-05-15T15:27:00.402Z,5.72
2023-05-15T15:29:28.420Z,5.00
2023-05-15T15:31:56.480Z,4.47
2023-05-15T15:34:24.542Z,4.28
2023-05-15T15:36:52.563Z,4.93
2023-05-15T15:39:21.956Z,4.57
2023-05-15T15:41:50.011Z,4.50
2023-05-15T15:44:18.112Z,5.28
2023-05-15T15:46:46.163Z,5.07
2023-05-15T15:49:14.218Z,4.68
2023-05-15T15:51:42.296Z,4.75
2023-05-15T15:54:10.341Z,4.97
2023-05-15T15:56:40.317Z,4.22
2023-05-15T15:59:08.355Z,4.18
2023-05-15T16:01:36.873Z,4.30
2023-05-15T16:04:05.075Z,4.53
2023-05-15T16:06:34.260Z,3.97
2023-05-15T16:09:02.317Z,4.53
2023-05-15T16:11:30.766Z,4.72
2023-05-15T16:14:02.841Z,4.22
2023-05-15T16:16:32.166Z,4.15
2023-05-15T16:19:01.836Z,4.28
2023-05-15T16:21:32.573Z,3.92
2023-05-15T16:24:00.944Z,4.28
2023-05-15T16:26:29.184Z,4.07
2023-05-15T16:28:57.644Z,3.60
2023-05-15T16:31:27.141Z,3.53
2023-05-15T16:33:55.401Z,3.53
2023-05-15T16:36:23.445Z,3.63
2023-05-15T16:38:51.557Z,3.95
2023-05-15T16:41:19.617Z,3.75
2023-05-15T16:44:10.880Z,3.45
2023-05-15T16:46:40.322Z,3.90
2023-05-15T16:49:08.507Z,3.42
2023-05-15T16:51:36.522Z,4.22
2023-05-15T16:54:04.600Z,3.67
2023-05-15T16:56:32.640Z,3.80
2023-05-15T16:59:00.633Z,3.30
2023-05-15T17:01:28.680Z,3.78
2023-05-15T17:03:58.246Z,3.75
2023-05-15T17:06:26.288Z,4.18
2023-05-15T17:08:54.316Z,4.45
2023-05-15T17:11:22.624Z,4.38
2023-05-15T17:13:50.656Z,4.05
2023-05-15T17:16:18.769Z,4.60
2023-05-15T17:18:46.874Z,4.00
2023-05-15T17:21:16.288Z,4.25
2023-05-15T17:23:44.312Z,3.92
2023-05-15T17:26:12.349Z,3.83
2023-05-15T17:28:40.740Z,4.32
2023-05-15T17:31:11.595Z,3.85
2023-05-15T17:33:40.454Z,3.97
2023-05-15T17:36:09.196Z,4.05
2023-05-15T17:38:38.634Z,4.22
2023-05-15T17:41:07.727Z,4.00
2023-05-15T17:43:35.770Z,3.70
2023-05-15T17:46:05.660Z,4.13
2023-05-15T17:48:34.497Z,5.22
2023-05-15T17:51:02.680Z,4.40
2023-05-15T17:53:30.728Z,4.38
2023-05-15T17:56:01.063Z,4.72
2023-05-15T17:58:29.076Z,3.83
2023-05-15T18:00:57.198Z,4.40
2023-05-15T18:03:25.403Z,4.70
2023-05-15T18:05:53.782Z,5.03
2023-05-15T18:08:21.983Z,5.45
2023-05-15T18:10:50.032Z,5.00
2023-05-15T18:13:19.768Z,4.53
2023-05-15T18:15:47.835Z,4.20
2023-05-15T18:18:16.431Z,4.53
2023-05-15T18:20:44.738Z,4.05
2023-05-15T18:23:12.764Z,4.22
2023-05-15T18:25:40.786Z,4.05
2023-05-15T18:28:08.810Z,4.20
2023-05-15T18:30:38.203Z,4.68
2023-05-15T18:33:06.258Z,4.07
2023-05-15T18:35:34.418Z,4.20
2023-05-15T18:38:02.509Z,3.90
2023-05-15T18:40:30.594Z,4.43
2023-05-15T18:42:58.698Z,4.40
2023-05-15T18:45:27.068Z,4.43
2023-05-15T18:47:56.747Z,4.80
2023-05-15T18:50:25.392Z,4.50
2023-05-15T18:52:53.456Z,4.88
2023-05-15T18:55:22.699Z,4.20
2023-05-15T18:57:50.931Z,5.00
2023-05-15T19:00:34.051Z,5.53
2023-05-15T19:03:09.348Z,6.68
2023-05-15T19:05:37.464Z,7.20
2023-05-15T19:08:05.531Z,5.50
2023-05-15T19:10:33.589Z,5.30
2023-05-15T19:13:01.668Z,6.13
2023-05-15T19:15:29.750Z,5.38
2023-05-15T19:17:57.942Z,4.65
2023-05-15T19:20:27.640Z,4.90
2023-05-15T19:22:55.934Z,4.70
2023-05-15T19:25:24.379Z,5.32
2023-05-15T19:27:52.415Z,5.43
2023-05-15T19:30:20.985Z,5.30
2023-05-15T19:32:49.316Z,4.93
2023-05-15T19:35:17.408Z,4.45
2023-05-15T19:37:47.516Z,4.47
2023-05-15T19:40:16.002Z,5.50
2023-05-15T19:42:44.060Z,5.63
2023-05-15T19:45:12.666Z,5.65
2023-05-15T19:47:42.519Z,6.75
2023-05-15T19:50:11.355Z,5.65
2023-05-15T19:52:39.767Z,5.70
2023-05-15T19:55:10.131Z,5.97
2023-05-15T19:57:42.564Z,6.57
2023-05-15T20:00:12.394Z,6.47
2023-05-15T20:02:41.309Z,6.13
2023-05-15T20:05:10.489Z,7.40
2023-05-15T20:07:39.260Z,6.80
2023-05-15T20:10:10.554Z,6.82
2023-05-15T20:12:38.705Z,6.20
2023-05-15T20:15:08.517Z,7.95
2023-05-15T20:17:36.620Z,7.20
2023-05-15T20:20:08.212Z,8.20
2023-05-15T20:22:36.254Z,8.57
2023-05-15T20:25:04.483Z,9.05
2023-05-15T20:27:33.990Z,8.20
2023-05-15T20:30:03.443Z,7.57
2023-05-15T20:32:31.964Z,7.00
2023-05-15T20:35:00.524Z,6.28
2023-05-15T20:37:30.290Z,7.72
2023-05-15T20:39:59.003Z,7.13
2023-05-15T20:42:29.079Z,6.80
2023-05-15T20:44:58.504Z,7.90
2023-05-15T20:47:26.599Z,7.43
2023-05-15T20:49:54.779Z,7.78
2023-05-15T20:52:22.883Z,7.50
2023-05-15T20:54:50.912Z,8.63
2023-05-15T20:57:18.957Z,8.60
2023-05-15T20:59:46.956Z,10.20
2023-05-15T21:02:16.376Z,10.88
2023-05-15T21:04:44.674Z,9.88
2023-05-15T21:07:12.734Z,9.52
2023-05-15T21:09:40.750Z,9.40
2023-05-15T21:12:09.250Z,8.55
2023-05-15T21:14:37.266Z,8.32
2023-05-15T21:17:05.631Z,8.65
2023-05-15T21:19:35.089Z,8.05
2023-05-15T21:22:03.134Z,7.88
2023-05-15T21:24:31.175Z,8.63
2023-05-15T21:26:59.232Z,8.15
2023-05-15T21:29:27.256Z,8.55
2023-05-15T21:31:56.109Z,8.98
2023-05-15T21:34:24.144Z,9.18
2023-05-15T21:36:53.811Z,8.73
2023-05-15T21:39:21.870Z,8.18
2023-05-15T21:41:51.272Z,9.10
2023-05-15T21:44:19.327Z,8.63
2023-05-15T21:46:47.511Z,7.82
2023-05-15T21:49:15.591Z,8.48
2023-05-15T21:51:43.642Z,3.47
2023-05-15T21:54:13.172Z,3.65
2023-05-15T21:56:41.220Z,5.53
2023-05-15T21:59:11.315Z,7.28
2023-05-15T22:01:40.949Z,7.57
2023-05-15T22:04:09.416Z,8.07
2023-05-15T22:06:37.489Z,8.25
2023-05-15T22:09:06.099Z,8.35
2023-05-15T22:11:35.558Z,7.72
2023-05-15T22:14:09.994Z,8.50
2023-05-15T22:16:38.176Z,8.75
2023-05-15T22:19:06.379Z,8.27
2023-05-15T22:21:34.531Z,7.95
2023-05-15T22:24:04.476Z,7.60
2023-05-15T22:26:34.246Z,8.60
2023-05-15T22:29:03.746Z,7.78
2023-05-15T22:31:31.842Z,7.70
2023-05-15T22:33:59.915Z,7.43
2023-05-15T22:36:27.988Z,8.38
2023-05-15T22:38:56.032Z,8.85
2023-05-15T22:41:24.083Z,8.93
2023-05-15T22:43:52.114Z,8.32
2023-05-15T22:46:21.601Z,8.35
2023-05-15T22:48:49.656Z,8.55
2023-05-15T22:51:18.419Z,8.32
2023-05-15T22:53:46.495Z,8.32
2023-05-15T22:56:14.526Z,8.40
2023-05-15T22:58:42.665Z,9.25
2023-05-15T23:01:11.119Z,9.05
2023-05-15T23:03:40.563Z,8.50
2023-05-15T23:06:08.878Z,9.40
2023-05-15T23:08:36.899Z,8.80
2023-05-15T23:11:05.000Z,9.05
2023-05-15T23:13:33.035Z,9.55
2023-05-15T23:16:01.203Z,9.93
2023-05-15T23:18:29.525Z,9.82
2023-05-15T23:20:58.967Z,10.75
2023-05-15T23:23:26.999Z,8.57
2023-05-15T23:25:55.044Z,8.88
2023-05-15T23:28:23.088Z,9.90
2023-05-15T23:30:53.630Z,9.35
2023-05-15T23:33:21.802Z,8.98
2023-05-15T23:35:49.856Z,9.63
2023-05-15T23:38:19.366Z,9.27
2023-05-15T23:40:48.458Z,9.23
2023-05-15T23:43:16.748Z,10.88
2023-05-15T23:45:44.787Z,10.20
2023-05-15T23:48:12.940Z,9.23
2023-05-15T23:50:41.589Z,9.27
2023-05-15T23:53:09.656Z,9.70
2023-05-15T23:55:39.069Z,9.85
2023-05-15T23:58:07.129Z,9.05
